sensor_id;sensor_type;location;lat;lon;timestamp;pressure;altitude;pressure_sealevel;temperature;humidity
70009;BME280;59542;37.950;-122.338;2022-12-18T00:01:23;101536.09;;;12.16;48.65
70009;BME280;59542;37.950;-122.338;2022-12-18T00:03:50;101535.28;;;12.22;48.34
70009;BME280;59542;37.950;-122.338;2022-12-18T00:06:17;101527.38;;;12.14;48.53
70009;BME280;59542;37.950;-122.338;2022-12-18T00:08:44;101537.41;;;11.99;49.05
70009;BME280;59542;37.950;-122.338;2022-12-18T00:11:13;101522.41;;;11.76;49.57
70009;BME280;59542;37.950;-122.338;2022-12-18T00:13:39;101522.50;;;11.83;50.00
70009;BME280;59542;37.950;-122.338;2022-12-18T00:16:12;101528.19;;;11.73;50.26
70009;BME280;59542;37.950;-122.338;2022-12-18T00:18:39;101528.31;;;11.65;50.45
70009;BME280;59542;37.950;-122.338;2022-12-18T00:21:06;101523.59;;;11.67;50.48
70009;BME280;59542;37.950;-122.338;2022-12-18T00:23:34;101522.53;;;11.33;51.50
70009;BME280;59542;37.950;-122.338;2022-12-18T00:26:02;101528.06;;;11.32;51.84
70009;BME280;59542;37.950;-122.338;2022-12-18T00:28:29;101520.47;;;11.35;51.62
70009;BME280;59542;37.950;-122.338;2022-12-18T00:31:02;101515.22;;;11.49;51.14
70009;BME280;59542;37.950;-122.338;2022-12-18T00:33:28;101526.00;;;11.27;51.83
70009;BME280;59542;37.950;-122.338;2022-12-18T00:35:54;101521.09;;;11.09;52.32
70009;BME280;59542;37.950;-122.338;2022-12-18T00:38:21;101520.09;;;11.10;52.43
70009;BME280;59542;37.950;-122.338;2022-12-18T00:40:47;101528.50;;;10.86;52.96
70009;BME280;59542;37.950;-122.338;2022-12-18T00:43:13;101518.50;;;10.95;52.77
70009;BME280;59542;37.950;-122.338;2022-12-18T00:45:39;101526.38;;;10.81;53.24
70009;BME280;59542;37.950;-122.338;2022-12-18T00:48:06;101530.47;;;10.77;53.52
70009;BME280;59542;37.950;-122.338;2022-12-18T00:50:33;101526.06;;;10.91;52.78
70009;BME280;59542;37.950;-122.338;2022-12-18T00:52:59;101532.22;;;10.49;53.91
70009;BME280;59542;37.950;-122.338;2022-12-18T00:55:25;101524.19;;;10.49;53.49
70009;BME280;59542;37.950;-122.338;2022-12-18T00:57:52;101518.91;;;10.77;53.04
70009;BME280;59542;37.950;-122.338;2022-12-18T01:00:18;101527.94;;;10.91;52.64
70009;BME280;59542;37.950;-122.338;2022-12-18T01:02:44;101526.28;;;10.90;52.50
70009;BME280;59542;37.950;-122.338;2022-12-18T01:05:12;101524.63;;;10.89;52.38
70009;BME280;59542;37.950;-122.338;2022-12-18T01:07:39;101522.81;;;10.96;52.14
70009;BME280;59542;37.950;-122.338;2022-12-18T01:10:06;101521.03;;;11.03;51.67
70009;BME280;59542;37.950;-122.338;2022-12-18T01:12:33;101527.09;;;10.90;51.81
70009;BME280;59542;37.950;-122.338;2022-12-18T01:15:00;101517.19;;;10.69;52.06
70009;BME280;59542;37.950;-122.338;2022-12-18T01:17:26;101514.97;;;10.51;52.57
70009;BME280;59542;37.950;-122.338;2022-12-18T01:19:52;101506.09;;;10.51;52.42
70009;BME280;59542;37.950;-122.338;2022-12-18T01:22:18;101513.63;;;10.26;53.09
70009;BME280;59542;37.950;-122.338;2022-12-18T01:24:45;101515.97;;;10.50;52.29
70009;BME280;59542;37.950;-122.338;2022-12-18T01:27:11;101509.38;;;10.68;52.17
70009;BME280;59542;37.950;-122.338;2022-12-18T01:29:37;101511.69;;;10.35;52.31
70009;BME280;59542;37.950;-122.338;2022-12-18T01:32:04;101519.53;;;10.07;52.77
70009;BME280;59542;37.950;-122.338;2022-12-18T01:34:30;101517.22;;;10.03;52.23
70009;BME280;59542;37.950;-122.338;2022-12-18T01:36:56;101517.56;;;10.15;52.28
70009;BME280;59542;37.950;-122.338;2022-12-18T01:39:23;101514.44;;;10.26;51.69
70009;BME280;59542;37.950;-122.338;2022-12-18T01:41:49;101512.38;;;10.43;51.39
70009;BME280;59542;37.950;-122.338;2022-12-18T01:47:45;101524.69;;;10.23;51.39
70009;BME280;59542;37.950;-122.338;2022-12-18T01:50:17;101519.97;;;10.10;51.60
70009;BME280;59542;37.950;-122.338;2022-12-18T01:52:47;101512.81;;;10.11;51.45
70009;BME280;59542;37.950;-122.338;2022-12-18T01:55:18;101517.97;;;9.97;52.01
70009;BME280;59542;37.950;-122.338;2022-12-18T01:57:45;101516.00;;;10.21;51.14
70009;BME280;59542;37.950;-122.338;2022-12-18T02:00:15;101513.69;;;10.32;50.24
70009;BME280;59542;37.950;-122.338;2022-12-18T02:02:43;101513.97;;;10.38;49.72
70009;BME280;59542;37.950;-122.338;2022-12-18T02:05:12;101526.53;;;10.22;50.37
70009;BME280;59542;37.950;-122.338;2022-12-18T02:10:31;101515.94;;;10.29;50.65
70009;BME280;59542;37.950;-122.338;2022-12-18T02:13:14;101512.53;;;10.05;51.20
70009;BME280;59542;37.950;-122.338;2022-12-18T02:18:37;101516.50;;;9.95;51.54
70009;BME280;59542;37.950;-122.338;2022-12-18T02:21:25;101511.69;;;10.05;50.87
70009;BME280;59542;37.950;-122.338;2022-12-18T02:24:18;101511.78;;;9.82;51.58
70009;BME280;59542;37.950;-122.338;2022-12-18T02:26:50;101514.25;;;9.98;51.06
70009;BME280;59542;37.950;-122.338;2022-12-18T02:29:25;101519.53;;;9.77;51.61
70009;BME280;59542;37.950;-122.338;2022-12-18T02:32:17;101514.16;;;9.77;51.83
70009;BME280;59542;37.950;-122.338;2022-12-18T02:34:46;101510.97;;;9.67;51.93
70009;BME280;59542;37.950;-122.338;2022-12-18T02:37:16;101512.16;;;9.64;52.45
70009;BME280;59542;37.950;-122.338;2022-12-18T02:39:47;101516.19;;;9.60;52.72
70009;BME280;59542;37.950;-122.338;2022-12-18T02:42:16;101509.63;;;9.48;53.40
70009;BME280;59542;37.950;-122.338;2022-12-18T02:44:45;101515.72;;;9.42;53.57
70009;BME280;59542;37.950;-122.338;2022-12-18T02:47:12;101513.78;;;9.36;53.47
70009;BME280;59542;37.950;-122.338;2022-12-18T02:55:39;101505.94;;;9.34;53.47
70009;BME280;59542;37.950;-122.338;2022-12-18T02:58:18;101507.22;;;9.23;54.13
70009;BME280;59542;37.950;-122.338;2022-12-18T03:03:52;101513.72;;;9.44;56.05
70009;BME280;59542;37.950;-122.338;2022-12-18T03:06:31;101512.63;;;8.92;57.01
70009;BME280;59542;37.950;-122.338;2022-12-18T03:09:12;101513.72;;;9.06;57.16
70009;BME280;59542;37.950;-122.338;2022-12-18T03:11:45;101515.84;;;8.88;57.89
70009;BME280;59542;37.950;-122.338;2022-12-18T03:14:33;101521.59;;;8.77;58.17
70009;BME280;59542;37.950;-122.338;2022-12-18T03:17:04;101527.19;;;8.36;59.68
70009;BME280;59542;37.950;-122.338;2022-12-18T03:19:33;101526.13;;;8.45;60.27
70009;BME280;59542;37.950;-122.338;2022-12-18T03:22:03;101527.00;;;8.29;60.73
70009;BME280;59542;37.950;-122.338;2022-12-18T03:24:31;101533.28;;;8.05;62.11
70009;BME280;59542;37.950;-122.338;2022-12-18T03:27:02;101538.63;;;8.05;61.94
70009;BME280;59542;37.950;-122.338;2022-12-18T03:29:51;101537.56;;;7.59;63.64
70009;BME280;59542;37.950;-122.338;2022-12-18T03:32:27;101528.84;;;7.89;62.62
70009;BME280;59542;37.950;-122.338;2022-12-18T03:34:58;101535.88;;;7.66;63.48
70009;BME280;59542;37.950;-122.338;2022-12-18T03:37:25;101525.78;;;7.37;64.27
70009;BME280;59542;37.950;-122.338;2022-12-18T03:39:51;101527.94;;;7.50;64.50
70009;BME280;59542;37.950;-122.338;2022-12-18T03:42:28;101536.41;;;7.61;63.88
70009;BME280;59542;37.950;-122.338;2022-12-18T03:51:09;101531.44;;;7.26;65.23
70009;BME280;59542;37.950;-122.338;2022-12-18T03:53:46;101520.81;;;7.18;65.57
70009;BME280;59542;37.950;-122.338;2022-12-18T03:56:16;101531.63;;;7.08;66.00
70009;BME280;59542;37.950;-122.338;2022-12-18T03:58:43;101527.94;;;6.68;67.79
70009;BME280;59542;37.950;-122.338;2022-12-18T04:01:12;101527.72;;;6.53;68.49
70009;BME280;59542;37.950;-122.338;2022-12-18T04:03:41;101523.34;;;6.28;69.49
70009;BME280;59542;37.950;-122.338;2022-12-18T04:06:09;101521.00;;;6.25;69.15
70009;BME280;59542;37.950;-122.338;2022-12-18T04:08:36;101524.41;;;6.59;68.64
70009;BME280;59542;37.950;-122.338;2022-12-18T04:11:04;101520.25;;;6.65;68.03
70009;BME280;59542;37.950;-122.338;2022-12-18T04:13:35;101515.78;;;6.82;67.32
70009;BME280;59542;37.950;-122.338;2022-12-18T04:16:03;101516.09;;;6.71;67.72
70009;BME280;59542;37.950;-122.338;2022-12-18T04:18:29;101530.59;;;6.68;67.63
70009;BME280;59542;37.950;-122.338;2022-12-18T04:20:56;101529.41;;;6.63;67.78
70009;BME280;59542;37.950;-122.338;2022-12-18T04:23:22;101519.56;;;6.47;68.22
70009;BME280;59542;37.950;-122.338;2022-12-18T04:25:48;101538.69;;;6.58;67.81
70009;BME280;59542;37.950;-122.338;2022-12-18T04:28:14;101533.22;;;6.52;67.73
70009;BME280;59542;37.950;-122.338;2022-12-18T04:30:41;101536.69;;;6.44;67.83
70009;BME280;59542;37.950;-122.338;2022-12-18T04:33:10;101541.88;;;6.12;69.59
70009;BME280;59542;37.950;-122.338;2022-12-18T04:35:37;101539.97;;;5.70;71.39
70009;BME280;59542;37.950;-122.338;2022-12-18T04:38:04;101541.38;;;5.56;72.25
70009;BME280;59542;37.950;-122.338;2022-12-18T04:40:31;101544.66;;;5.76;71.73
70009;BME280;59542;37.950;-122.338;2022-12-18T04:43:00;101546.47;;;5.75;71.63
70009;BME280;59542;37.950;-122.338;2022-12-18T04:45:26;101543.81;;;5.49;72.37
70009;BME280;59542;37.950;-122.338;2022-12-18T04:47:53;101537.63;;;5.67;72.03
70009;BME280;59542;37.950;-122.338;2022-12-18T04:50:19;101542.22;;;5.56;72.54
70009;BME280;59542;37.950;-122.338;2022-12-18T04:52:45;101541.06;;;5.59;72.67
70009;BME280;59542;37.950;-122.338;2022-12-18T04:55:11;101536.53;;;5.51;72.64
70009;BME280;59542;37.950;-122.338;2022-12-18T04:57:37;101541.41;;;5.64;72.12
70009;BME280;59542;37.950;-122.338;2022-12-18T05:00:04;101534.34;;;5.73;71.57
70009;BME280;59542;37.950;-122.338;2022-12-18T05:02:31;101537.31;;;5.70;71.61
70009;BME280;59542;37.950;-122.338;2022-12-18T05:04:58;101543.97;;;5.74;71.62
70009;BME280;59542;37.950;-122.338;2022-12-18T05:07:24;101544.91;;;5.65;72.15
70009;BME280;59542;37.950;-122.338;2022-12-18T05:09:50;101542.50;;;5.53;72.35
70009;BME280;59542;37.950;-122.338;2022-12-18T05:12:16;101540.22;;;5.59;72.15
70009;BME280;59542;37.950;-122.338;2022-12-18T05:14:43;101542.09;;;5.40;72.89
70009;BME280;59542;37.950;-122.338;2022-12-18T05:17:09;101542.78;;;5.42;72.70
70009;BME280;59542;37.950;-122.338;2022-12-18T05:19:35;101540.81;;;5.44;72.34
70009;BME280;59542;37.950;-122.338;2022-12-18T05:22:04;101542.25;;;5.39;72.75
70009;BME280;59542;37.950;-122.338;2022-12-18T05:24:30;101542.19;;;5.30;73.06
70009;BME280;59542;37.950;-122.338;2022-12-18T05:26:57;101539.53;;;5.30;72.90
70009;BME280;59542;37.950;-122.338;2022-12-18T05:29:23;101541.97;;;5.24;73.18
70009;BME280;59542;37.950;-122.338;2022-12-18T05:31:49;101545.91;;;5.20;73.39
70009;BME280;59542;37.950;-122.338;2022-12-18T05:34:16;101536.53;;;5.08;74.07
70009;BME280;59542;37.950;-122.338;2022-12-18T05:36:42;101543.56;;;4.99;74.01
70009;BME280;59542;37.950;-122.338;2022-12-18T05:39:08;101545.28;;;5.00;74.21
70009;BME280;59542;37.950;-122.338;2022-12-18T05:41:35;101537.75;;;4.95;74.24
70009;BME280;59542;37.950;-122.338;2022-12-18T05:44:01;101537.59;;;4.79;74.91
70009;BME280;59542;37.950;-122.338;2022-12-18T05:46:28;101541.91;;;4.80;75.06
70009;BME280;59542;37.950;-122.338;2022-12-18T05:48:55;101541.84;;;4.72;75.15
70009;BME280;59542;37.950;-122.338;2022-12-18T05:51:24;101535.41;;;4.74;74.90
70009;BME280;59542;37.950;-122.338;2022-12-18T05:53:51;101541.16;;;4.70;75.54
70009;BME280;59542;37.950;-122.338;2022-12-18T05:56:20;101543.34;;;4.57;76.09
70009;BME280;59542;37.950;-122.338;2022-12-18T05:58:47;101539.38;;;4.61;75.96
70009;BME280;59542;37.950;-122.338;2022-12-18T06:01:16;101541.28;;;4.50;76.16
70009;BME280;59542;37.950;-122.338;2022-12-18T06:03:43;101539.81;;;4.38;76.87
70009;BME280;59542;37.950;-122.338;2022-12-18T06:06:19;101524.97;;;4.28;76.97
70009;BME280;59542;37.950;-122.338;2022-12-18T06:08:46;101531.72;;;4.40;76.75
70009;BME280;59542;37.950;-122.338;2022-12-18T06:11:13;101533.38;;;4.41;76.62
70009;BME280;59542;37.950;-122.338;2022-12-18T06:13:41;101537.75;;;4.32;76.97
70009;BME280;59542;37.950;-122.338;2022-12-18T06:16:08;101533.03;;;4.26;77.39
70009;BME280;59542;37.950;-122.338;2022-12-18T06:18:34;101531.00;;;4.20;77.34
70009;BME280;59542;37.950;-122.338;2022-12-18T06:21:00;101532.84;;;4.10;77.80
70009;BME280;59542;37.950;-122.338;2022-12-18T06:23:27;101531.31;;;4.17;77.67
70009;BME280;59542;37.950;-122.338;2022-12-18T06:25:53;101520.53;;;4.18;77.55
70009;BME280;59542;37.950;-122.338;2022-12-18T06:28:20;101528.06;;;4.23;77.59
70009;BME280;59542;37.950;-122.338;2022-12-18T06:30:47;101516.28;;;4.08;77.67
70009;BME280;59542;37.950;-122.338;2022-12-18T06:33:15;101522.00;;;4.03;78.35
70009;BME280;59542;37.950;-122.338;2022-12-18T06:35:41;101520.34;;;4.02;78.62
70009;BME280;59542;37.950;-122.338;2022-12-18T06:38:08;101525.22;;;4.07;78.23
70009;BME280;59542;37.950;-122.338;2022-12-18T06:40:35;101522.00;;;4.03;78.32
70009;BME280;59542;37.950;-122.338;2022-12-18T06:43:02;101518.53;;;4.03;78.57
70009;BME280;59542;37.950;-122.338;2022-12-18T06:45:28;101517.47;;;3.95;78.82
70009;BME280;59542;37.950;-122.338;2022-12-18T06:47:54;101519.97;;;3.87;79.44
70009;BME280;59542;37.950;-122.338;2022-12-18T06:50:21;101531.56;;;3.86;79.71
70009;BME280;59542;37.950;-122.338;2022-12-18T06:52:47;101532.25;;;3.88;79.64
70009;BME280;59542;37.950;-122.338;2022-12-18T06:55:13;101530.34;;;3.71;80.30
70009;BME280;59542;37.950;-122.338;2022-12-18T06:57:39;101524.59;;;3.85;79.73
70009;BME280;59542;37.950;-122.338;2022-12-18T07:00:07;101530.97;;;3.92;79.31
70009;BME280;59542;37.950;-122.338;2022-12-18T07:02:33;101532.22;;;3.98;79.02
70009;BME280;59542;37.950;-122.338;2022-12-18T07:05:00;101533.34;;;3.95;79.22
70009;BME280;59542;37.950;-122.338;2022-12-18T07:07:26;101533.94;;;4.17;78.04
70009;BME280;59542;37.950;-122.338;2022-12-18T07:09:53;101531.81;;;4.20;78.17
70009;BME280;59542;37.950;-122.338;2022-12-18T07:12:19;101536.19;;;4.39;76.94
70009;BME280;59542;37.950;-122.338;2022-12-18T07:14:45;101528.72;;;4.25;77.31
70009;BME280;59542;37.950;-122.338;2022-12-18T07:17:11;101532.25;;;4.43;76.83
70009;BME280;59542;37.950;-122.338;2022-12-18T07:19:37;101532.00;;;4.37;76.79
70009;BME280;59542;37.950;-122.338;2022-12-18T07:22:03;101530.75;;;4.41;77.01
70009;BME280;59542;37.950;-122.338;2022-12-18T07:24:30;101534.91;;;4.43;76.76
70009;BME280;59542;37.950;-122.338;2022-12-18T07:26:56;101529.81;;;4.32;77.18
70009;BME280;59542;37.950;-122.338;2022-12-18T07:29:22;101532.81;;;4.19;77.77
70009;BME280;59542;37.950;-122.338;2022-12-18T07:31:48;101527.44;;;4.11;78.35
70009;BME280;59542;37.950;-122.338;2022-12-18T07:34:15;101531.53;;;3.96;79.00
70009;BME280;59542;37.950;-122.338;2022-12-18T07:36:41;101529.03;;;3.94;78.92
70009;BME280;59542;37.950;-122.338;2022-12-18T07:39:07;101530.56;;;3.87;79.30
70009;BME280;59542;37.950;-122.338;2022-12-18T07:41:34;101519.31;;;3.85;79.10
70009;BME280;59542;37.950;-122.338;2022-12-18T07:44:01;101519.59;;;3.82;79.27
70009;BME280;59542;37.950;-122.338;2022-12-18T07:46:27;101518.06;;;3.80;79.19
70009;BME280;59542;37.950;-122.338;2022-12-18T07:48:53;101521.47;;;3.72;79.34
70009;BME280;59542;37.950;-122.338;2022-12-18T07:51:19;101518.66;;;3.74;79.43
70009;BME280;59542;37.950;-122.338;2022-12-18T07:53:46;101516.41;;;3.79;79.37
70009;BME280;59542;37.950;-122.338;2022-12-18T07:56:12;101515.03;;;3.65;79.34
70009;BME280;59542;37.950;-122.338;2022-12-18T07:58:39;101515.94;;;3.56;79.80
70009;BME280;59542;37.950;-122.338;2022-12-18T08:01:10;101510.88;;;3.72;79.66
70009;BME280;59542;37.950;-122.338;2022-12-18T08:03:37;101515.59;;;3.78;78.70
70009;BME280;59542;37.950;-122.338;2022-12-18T08:06:06;101512.16;;;3.95;77.53
70009;BME280;59542;37.950;-122.338;2022-12-18T08:08:33;101513.50;;;4.00;76.89
70009;BME280;59542;37.950;-122.338;2022-12-18T08:11:00;101512.09;;;4.05;76.80
70009;BME280;59542;37.950;-122.338;2022-12-18T08:13:27;101518.50;;;4.12;76.27
70009;BME280;59542;37.950;-122.338;2022-12-18T08:16:00;101513.22;;;4.03;76.52
70009;BME280;59542;37.950;-122.338;2022-12-18T08:18:27;101522.88;;;3.94;77.10
70009;BME280;59542;37.950;-122.338;2022-12-18T08:20:55;101520.97;;;3.86;77.57
70009;BME280;59542;37.950;-122.338;2022-12-18T08:23:22;101511.38;;;3.85;77.72
70009;BME280;59542;37.950;-122.338;2022-12-18T08:25:48;101510.59;;;3.65;78.29
70009;BME280;59542;37.950;-122.338;2022-12-18T08:28:15;101503.03;;;3.70;78.01
70009;BME280;59542;37.950;-122.338;2022-12-18T08:30:41;101503.38;;;3.95;77.07
70009;BME280;59542;37.950;-122.338;2022-12-18T08:33:08;101499.25;;;4.10;76.14
70009;BME280;59542;37.950;-122.338;2022-12-18T08:35:37;101512.38;;;4.12;76.08
70009;BME280;59542;37.950;-122.338;2022-12-18T08:38:04;101519.28;;;3.95;76.92
70009;BME280;59542;37.950;-122.338;2022-12-18T08:40:30;101521.09;;;3.94;76.90
70009;BME280;59542;37.950;-122.338;2022-12-18T08:42:56;101519.63;;;3.73;77.70
70009;BME280;59542;37.950;-122.338;2022-12-18T08:45:41;101519.09;;;3.69;78.34
70009;BME280;59542;37.950;-122.338;2022-12-18T08:48:07;101514.34;;;3.73;78.11
70009;BME280;59542;37.950;-122.338;2022-12-18T08:50:33;101520.50;;;3.54;78.81
70009;BME280;59542;37.950;-122.338;2022-12-18T08:53:00;101531.69;;;3.48;79.06
70009;BME280;59542;37.950;-122.338;2022-12-18T08:55:26;101530.16;;;3.45;79.32
70009;BME280;59542;37.950;-122.338;2022-12-18T08:57:52;101522.88;;;3.57;79.26
70009;BME280;59542;37.950;-122.338;2022-12-18T09:00:19;101526.78;;;3.62;78.66
70009;BME280;59542;37.950;-122.338;2022-12-18T09:02:45;101520.09;;;3.58;79.00
70009;BME280;59542;37.950;-122.338;2022-12-18T09:05:12;101523.41;;;3.70;78.79
70009;BME280;59542;37.950;-122.338;2022-12-18T09:07:38;101520.91;;;4.06;77.36
70009;BME280;59542;37.950;-122.338;2022-12-18T09:10:05;101523.59;;;3.96;77.51
70009;BME280;59542;37.950;-122.338;2022-12-18T09:12:31;101521.47;;;4.27;76.57
70009;BME280;59542;37.950;-122.338;2022-12-18T09:14:57;101524.22;;;4.35;76.46
70009;BME280;59542;37.950;-122.338;2022-12-18T09:17:24;101524.69;;;4.21;76.29
70009;BME280;59542;37.950;-122.338;2022-12-18T09:19:50;101527.56;;;4.10;76.32
70009;BME280;59542;37.950;-122.338;2022-12-18T09:22:17;101533.94;;;3.89;77.37
70009;BME280;59542;37.950;-122.338;2022-12-18T09:24:43;101529.53;;;4.08;77.21
70009;BME280;59542;37.950;-122.338;2022-12-18T09:27:09;101537.50;;;4.26;76.30
70009;BME280;59542;37.950;-122.338;2022-12-18T09:29:35;101536.88;;;4.14;76.29
70009;BME280;59542;37.950;-122.338;2022-12-18T09:32:02;101541.31;;;4.23;75.67
70009;BME280;59542;37.950;-122.338;2022-12-18T09:34:28;101558.47;;;4.19;75.61
70009;BME280;59542;37.950;-122.338;2022-12-18T09:36:54;101560.75;;;4.04;76.06
70009;BME280;59542;37.950;-122.338;2022-12-18T09:39:20;101553.19;;;3.82;76.79
70009;BME280;59542;37.950;-122.338;2022-12-18T09:41:57;101551.28;;;3.55;78.05
70009;BME280;59542;37.950;-122.338;2022-12-18T09:44:29;101554.25;;;3.52;78.81
70009;BME280;59542;37.950;-122.338;2022-12-18T09:49:25;101552.28;;;3.54;78.29
70009;BME280;59542;37.950;-122.338;2022-12-18T09:52:12;101549.47;;;3.65;78.17
70009;BME280;59542;37.950;-122.338;2022-12-18T09:54:57;101547.38;;;3.68;77.68
70009;BME280;59542;37.950;-122.338;2022-12-18T09:57:26;101552.66;;;3.68;77.20
70009;BME280;59542;37.950;-122.338;2022-12-18T09:59:56;101551.00;;;3.67;76.60
70009;BME280;59542;37.950;-122.338;2022-12-18T10:02:26;101546.72;;;3.94;75.42
70009;BME280;59542;37.950;-122.338;2022-12-18T10:18:18;101568.09;;;3.83;75.56
70009;BME280;59542;37.950;-122.338;2022-12-18T10:20:54;101572.72;;;3.71;76.25
70009;BME280;59542;37.950;-122.338;2022-12-18T10:26:24;101582.16;;;3.17;79.84
70009;BME280;59542;37.950;-122.338;2022-12-18T10:28:51;101583.38;;;3.13;79.63
70009;BME280;59542;37.950;-122.338;2022-12-18T10:31:23;101583.53;;;3.11;80.38
70009;BME280;59542;37.950;-122.338;2022-12-18T10:33:50;101593.69;;;3.06;80.25
70009;BME280;59542;37.950;-122.338;2022-12-18T10:36:16;101582.97;;;3.08;80.22
70009;BME280;59542;37.950;-122.338;2022-12-18T10:38:42;101587.84;;;3.22;80.02
70009;BME280;59542;37.950;-122.338;2022-12-18T10:41:25;101581.03;;;3.29;79.61
70009;BME280;59542;37.950;-122.338;2022-12-18T10:44:23;101582.81;;;3.19;80.09
70009;BME280;59542;37.950;-122.338;2022-12-18T10:47:04;101577.94;;;2.85;81.95
70009;BME280;59542;37.950;-122.338;2022-12-18T10:49:33;101585.31;;;2.91;82.28
70009;BME280;59542;37.950;-122.338;2022-12-18T10:52:21;101590.34;;;3.14;81.66
70009;BME280;59542;37.950;-122.338;2022-12-18T10:54:55;101596.44;;;3.53;80.27
70009;BME280;59542;37.950;-122.338;2022-12-18T10:59:54;101603.41;;;3.64;77.98
70009;BME280;59542;37.950;-122.338;2022-12-18T11:02:34;101601.47;;;3.47;78.91
70009;BME280;59542;37.950;-122.338;2022-12-18T11:05:01;101607.19;;;3.32;79.92
70009;BME280;59542;37.950;-122.338;2022-12-18T11:07:48;101606.75;;;3.27;79.86
70009;BME280;59542;37.950;-122.338;2022-12-18T11:10:17;101599.13;;;3.14;79.92
70009;BME280;59542;37.950;-122.338;2022-12-18T11:12:44;101597.88;;;3.18;80.31
70009;BME280;59542;37.950;-122.338;2022-12-18T11:15:19;101594.81;;;3.13;80.26
70009;BME280;59542;37.950;-122.338;2022-12-18T11:17:50;101589.50;;;3.04;80.96
70009;BME280;59542;37.950;-122.338;2022-12-18T11:23:00;101585.31;;;2.91;82.09
70009;BME280;59542;37.950;-122.338;2022-12-18T11:25:28;101578.22;;;3.02;81.93
70009;BME280;59542;37.950;-122.338;2022-12-18T11:27:58;101587.97;;;3.01;82.31
70009;BME280;59542;37.950;-122.338;2022-12-18T11:33:10;101579.06;;;3.12;82.45
70009;BME280;59542;37.950;-122.338;2022-12-18T11:35:39;101573.91;;;3.20;82.57
70009;BME280;59542;37.950;-122.338;2022-12-18T11:38:22;101568.19;;;3.05;82.50
70009;BME280;59542;37.950;-122.338;2022-12-18T11:44:03;101566.13;;;2.89;84.38
70009;BME280;59542;37.950;-122.338;2022-12-18T11:46:34;101563.75;;;3.25;83.72
70009;BME280;59542;37.950;-122.338;2022-12-18T11:49:15;101567.38;;;2.95;85.13
70009;BME280;59542;37.950;-122.338;2022-12-18T11:51:51;101564.59;;;2.97;85.58
70009;BME280;59542;37.950;-122.338;2022-12-18T11:54:19;101566.25;;;2.88;85.25
70009;BME280;59542;37.950;-122.338;2022-12-18T12:00:04;101563.88;;;3.04;83.54
70009;BME280;59542;37.950;-122.338;2022-12-18T12:19:07;101572.50;;;2.68;82.82
70009;BME280;59542;37.950;-122.338;2022-12-18T12:21:44;101566.69;;;2.83;82.37
70009;BME280;59542;37.950;-122.338;2022-12-18T12:24:31;101573.34;;;2.78;82.44
70009;BME280;59542;37.950;-122.338;2022-12-18T12:30:07;101575.47;;;2.44;83.70
70009;BME280;59542;37.950;-122.338;2022-12-18T12:40:54;101573.56;;;2.55;85.06
70009;BME280;59542;37.950;-122.338;2022-12-18T12:43:33;101582.06;;;2.59;84.74
70009;BME280;59542;37.950;-122.338;2022-12-18T12:46:10;101573.22;;;2.29;85.89
70009;BME280;59542;37.950;-122.338;2022-12-18T12:48:41;101570.34;;;2.42;85.80
70009;BME280;59542;37.950;-122.338;2022-12-18T12:51:30;101562.16;;;2.45;85.39
70009;BME280;59542;37.950;-122.338;2022-12-18T12:53:59;101559.88;;;2.31;85.83
70009;BME280;59542;37.950;-122.338;2022-12-18T12:59:36;101549.69;;;2.76;84.21
70009;BME280;59542;37.950;-122.338;2022-12-18T13:07:35;101548.28;;;2.82;82.71
70009;BME280;59542;37.950;-122.338;2022-12-18T13:13:05;101562.78;;;3.07;81.69
70009;BME280;59542;37.950;-122.338;2022-12-18T13:15:45;101565.00;;;3.21;80.16
70009;BME280;59542;37.950;-122.338;2022-12-18T13:18:21;101565.84;;;3.02;79.78
70009;BME280;59542;37.950;-122.338;2022-12-18T13:20:51;101566.06;;;2.51;81.17
70009;BME280;59542;37.950;-122.338;2022-12-18T13:23:28;101578.63;;;2.87;79.73
70009;BME280;59542;37.950;-122.338;2022-12-18T13:31:11;101579.97;;;2.53;80.22
70009;BME280;59542;37.950;-122.338;2022-12-18T13:33:40;101577.44;;;2.42;80.61
70009;BME280;59542;37.950;-122.338;2022-12-18T13:36:14;101578.31;;;2.52;80.62
70009;BME280;59542;37.950;-122.338;2022-12-18T13:38:42;101576.47;;;2.43;80.44
70009;BME280;59542;37.950;-122.338;2022-12-18T13:46:28;101570.13;;;2.64;79.33
70009;BME280;59542;37.950;-122.338;2022-12-18T13:49:02;101569.97;;;2.66;80.25
70009;BME280;59542;37.950;-122.338;2022-12-18T13:51:32;101574.09;;;2.49;80.80
70009;BME280;59542;37.950;-122.338;2022-12-18T13:54:02;101575.91;;;2.49;80.88
70009;BME280;59542;37.950;-122.338;2022-12-18T13:56:31;101576.94;;;2.17;82.25
70009;BME280;59542;37.950;-122.338;2022-12-18T14:01:52;101579.44;;;2.19;82.63
70009;BME280;59542;37.950;-122.338;2022-12-18T14:04:22;101582.66;;;2.22;82.55
70009;BME280;59542;37.950;-122.338;2022-12-18T14:06:52;101588.44;;;2.06;82.78
70009;BME280;59542;37.950;-122.338;2022-12-18T14:09:26;101586.19;;;2.02;83.53
70009;BME280;59542;37.950;-122.338;2022-12-18T14:11:53;101586.50;;;2.08;83.63
70009;BME280;59542;37.950;-122.338;2022-12-18T14:14:48;101588.69;;;2.03;83.38
70009;BME280;59542;37.950;-122.338;2022-12-18T14:17:17;101582.41;;;1.95;84.66
70009;BME280;59542;37.950;-122.338;2022-12-18T14:19:48;101594.72;;;1.84;84.90
70009;BME280;59542;37.950;-122.338;2022-12-18T14:22:25;101588.56;;;1.74;85.16
70009;BME280;59542;37.950;-122.338;2022-12-18T14:30:38;101588.03;;;1.80;86.40
70009;BME280;59542;37.950;-122.338;2022-12-18T14:35:56;101595.88;;;1.71;87.31
70009;BME280;59542;37.950;-122.338;2022-12-18T14:40:53;101589.38;;;1.75;86.91